Terminal Aerodrome Forecast
Issued by NWS

Home | Current Version | Previous Version | Text Only | Print | Product List | Glossary Off
Versions: 1 2 3 4 5 6 7 8 9 10 11 12 13 14 15 16 17 18

000
FTUS43 KGRB 132300
TAFRHI
TAF
KRHI 132333Z 1400/1424 01015KT P6SM -RA OVC008
     FM140200 35015G21KT 6SM -RASN OVC007
     FM140400 34015G25KT 2SM -SN BR OVC007
     FM141300 33015G23KT 6SM -SN SCT009 BKN015
     FM141800 33013G23KT P6SM BKN030
     FM142300 32010KT P6SM SCT040=

USA.gov is the U.S. government's official web portal to all federal, state and local government web resources and services.